createdAt,value
2018-09-01T00:02:02.097Z,28.30
2018-09-01T00:04:29.669Z,26.20
2018-09-01T00:06:58.004Z,23.70
2018-09-01T00:09:25.575Z,25.27
2018-09-01T00:11:54.074Z,19.07
2018-09-01T00:14:21.633Z,20.63
2018-09-01T00:16:49.967Z,18.60
2018-09-01T00:19:17.527Z,15.50
2018-09-01T00:21:45.093Z,15.57
2018-09-01T00:24:12.665Z,14.77
2018-09-01T00:26:40.228Z,15.30
2018-09-01T00:29:07.798Z,14.97
2018-09-01T00:31:35.358Z,15.67
2018-09-01T00:34:02.925Z,16.10
2018-09-01T00:36:31.441Z,15.60
2018-09-01T00:39:01.821Z,15.83
2018-09-01T00:41:31.329Z,15.90
2018-09-01T00:43:58.893Z,14.77
2018-09-01T00:46:26.464Z,13.70
2018-09-01T00:48:54.032Z,15.20
2018-09-01T00:51:23.556Z,15.10
2018-09-01T00:53:51.119Z,15.50
2018-09-01T00:56:18.684Z,17.17
2018-09-01T00:58:46.254Z,15.17
2018-09-01T01:01:14.588Z,16.70
2018-09-01T01:03:42.155Z,18.57
2018-09-01T01:06:09.719Z,20.90
2018-09-01T01:08:37.284Z,20.97
2018-09-01T01:11:04.857Z,22.40
2018-09-01T01:13:32.425Z,23.57
2018-09-01T01:15:59.989Z,24.50
2018-09-01T01:18:27.559Z,20.67
2018-09-01T01:20:55.131Z,17.77
2018-09-01T01:23:22.878Z,18.57
2018-09-01T01:25:50.447Z,20.30
2018-09-01T01:28:18.013Z,19.00
2018-09-01T01:30:45.585Z,19.93
2018-09-01T01:33:13.157Z,18.50
2018-09-01T01:35:40.749Z,18.30
2018-09-01T01:38:09.073Z,20.07
2018-09-01T01:40:38.555Z,20.70
2018-09-01T01:43:06.157Z,19.27
2018-09-01T01:45:34.650Z,20.87
2018-09-01T01:48:02.989Z,19.23
2018-09-01T01:50:32.526Z,19.00
2018-09-01T01:53:00.094Z,24.23
2018-09-01T01:55:30.416Z,25.73
2018-09-01T01:57:57.993Z,25.67
2018-09-01T02:00:25.789Z,25.70
2018-09-01T02:02:55.326Z,23.17
2018-09-01T02:05:22.897Z,24.40
2018-09-01T02:07:51.229Z,25.27
2018-09-01T02:10:18.793Z,23.80
2018-09-01T02:12:46.359Z,25.63
2018-09-01T02:15:14.857Z,27.07
2018-09-01T02:17:44.149Z,26.57
2018-09-01T02:20:11.712Z,25.50
2018-09-01T02:22:41.216Z,25.27
2018-09-01T02:25:09.022Z,24.75
2018-09-01T02:27:38.518Z,24.63
2018-09-01T02:30:06.082Z,24.80
2018-09-01T02:32:33.748Z,24.80
2018-09-01T02:35:01.314Z,25.10
2018-09-01T02:37:30.822Z,22.93
2018-09-01T02:39:58.386Z,22.10
2018-09-01T02:42:25.955Z,22.37
2018-09-01T02:44:53.524Z,22.00
2018-09-01T02:47:21.855Z,23.23
2018-09-01T02:49:49.421Z,23.83
2018-09-01T02:52:16.982Z,23.50
2018-09-01T02:54:44.545Z,24.00
2018-09-01T02:57:12.110Z,24.00
2018-09-01T02:59:39.674Z,25.03
2018-09-01T03:02:07.241Z,24.13
2018-09-01T03:04:35.733Z,22.97
2018-09-01T03:07:04.061Z,21.90
2018-09-01T03:09:31.626Z,22.87
2018-09-01T03:11:59.190Z,21.27
2018-09-01T03:14:26.765Z,21.70
2018-09-01T03:16:54.332Z,19.30
2018-09-01T03:19:23.833Z,18.67
2018-09-01T03:21:51.401Z,19.83
2018-09-01T03:24:18.966Z,16.63
2018-09-01T03:26:47.522Z,16.60
2018-09-01T03:29:15.103Z,14.73
2018-09-01T03:31:43.429Z,16.40
2018-09-01T03:34:10.999Z,15.07
2018-09-01T03:36:38.561Z,15.73
2018-09-01T03:39:06.134Z,16.60
2018-09-01T03:41:35.431Z,16.90
2018-09-01T03:44:02.986Z,19.23
2018-09-01T03:46:30.557Z,17.93
2018-09-01T03:48:58.117Z,17.40
2018-09-01T03:51:26.453Z,18.23
2018-09-01T03:53:55.966Z,18.10
2018-09-01T03:56:23.542Z,18.60
2018-09-01T03:58:52.815Z,17.70
2018-09-01T04:01:20.381Z,18.43
2018-09-01T04:03:47.966Z,18.77
2018-09-01T04:06:15.534Z,19.10
2018-09-01T04:08:44.045Z,17.83
2018-09-01T04:11:11.609Z,18.57
2018-09-01T04:13:39.168Z,18.73
2018-09-01T04:16:06.738Z,20.50
2018-09-01T04:18:34.307Z,18.57
2018-09-01T04:21:01.878Z,18.20
2018-09-01T04:23:29.442Z,20.30
2018-09-01T04:25:57.025Z,19.43
2018-09-01T04:28:24.589Z,18.80
2018-09-01T04:30:53.145Z,19.07
2018-09-01T04:33:21.477Z,19.57
2018-09-01T04:35:49.037Z,21.93
2018-09-01T04:38:16.598Z,21.10
2018-09-01T04:40:44.165Z,22.43
2018-09-01T04:43:11.729Z,25.10
2018-09-01T04:45:39.302Z,26.40
2018-09-01T04:48:06.868Z,26.97
2018-09-01T04:50:35.198Z,25.40
2018-09-01T04:53:02.764Z,26.60
2018-09-01T04:55:30.333Z,25.77
2018-09-01T04:57:57.910Z,25.60
2018-09-01T05:00:26.233Z,25.60
2018-09-01T05:02:54.750Z,24.27
2018-09-01T05:05:22.337Z,24.10
2018-09-01T05:07:51.850Z,24.37
2018-09-01T05:10:20.349Z,22.50
2018-09-01T05:12:49.857Z,23.20
2018-09-01T05:15:17.426Z,22.43
2018-09-01T05:17:44.990Z,22.30
2018-09-01T05:20:12.571Z,26.17
2018-09-01T05:22:40.133Z,25.60
2018-09-01T05:25:08.289Z,25.95
2018-09-01T05:27:37.793Z,24.27
2018-09-01T05:30:06.129Z,25.50
2018-09-01T05:32:33.694Z,27.43
2018-09-01T05:35:01.268Z,25.07
2018-09-01T05:37:28.850Z,25.23
2018-09-01T05:39:57.177Z,23.80
2018-09-01T05:42:24.741Z,26.07
2018-09-01T05:44:53.249Z,23.10
2018-09-01T05:47:20.813Z,23.73
2018-09-01T05:49:48.386Z,24.30
2018-09-01T05:52:15.949Z,21.60
2018-09-01T05:54:43.509Z,22.20
2018-09-01T05:57:11.194Z,21.47
2018-09-01T05:59:38.762Z,21.13
2018-09-01T06:02:06.321Z,22.40
2018-09-01T06:04:35.846Z,20.90
2018-09-01T06:07:03.412Z,22.90
2018-09-01T06:09:30.979Z,20.50
2018-09-01T06:11:58.538Z,20.87
2018-09-01T06:14:26.106Z,22.00
2018-09-01T06:16:53.670Z,20.83
2018-09-01T06:19:22.066Z,20.97
2018-09-01T06:21:50.353Z,22.10
2018-09-01T06:24:17.909Z,20.30
2018-09-01T06:26:45.569Z,21.20
2018-09-01T06:29:13.125Z,20.30
2018-09-01T06:31:41.612Z,20.50
2018-09-01T06:34:09.177Z,19.37
2018-09-01T06:36:36.740Z,19.77
2018-09-01T06:39:04.300Z,22.33
2018-09-01T06:41:31.862Z,21.80
2018-09-01T06:44:00.385Z,19.67
2018-09-01T06:46:27.941Z,19.80
2018-09-01T06:48:55.514Z,22.40
2018-09-01T06:51:23.082Z,20.87
2018-09-01T06:53:50.670Z,22.30
2018-09-01T06:56:19.210Z,24.40
2018-09-01T06:58:46.779Z,23.27
2018-09-01T07:01:14.340Z,22.23
2018-09-01T07:03:41.907Z,23.53
2018-09-01T07:06:09.477Z,24.00
2018-09-01T07:08:37.044Z,22.70
2018-09-01T07:11:04.664Z,22.10
2018-09-01T07:13:32.206Z,21.30
2018-09-01T07:15:59.773Z,21.67
2018-09-01T07:18:27.344Z,21.87
2018-09-01T07:20:54.906Z,21.30
2018-09-01T07:23:22.470Z,20.70
2018-09-01T07:25:51.991Z,19.50
2018-09-01T07:28:19.557Z,19.53
2018-09-01T07:30:47.463Z,18.77
2018-09-01T07:33:14.717Z,19.07
2018-09-01T07:35:42.290Z,19.13
2018-09-01T07:38:09.853Z,18.43
2018-09-01T07:40:37.423Z,15.97
2018-09-01T07:43:04.980Z,15.37
2018-09-01T07:45:32.541Z,15.93
2018-09-01T07:48:00.108Z,14.33
2018-09-01T07:50:27.675Z,14.60
2018-09-01T07:52:55.242Z,14.13
2018-09-01T07:55:22.821Z,12.77
2018-09-01T07:57:50.381Z,14.07
2018-09-01T08:00:17.959Z,16.17
2018-09-01T08:02:45.529Z,15.00
2018-09-01T08:05:13.102Z,15.27
2018-09-01T08:07:40.662Z,15.93
2018-09-01T08:10:08.810Z,14.60
2018-09-01T08:12:36.667Z,14.60
2018-09-01T08:15:04.233Z,13.60
2018-09-01T08:17:31.797Z,14.52
2018-09-01T08:19:59.369Z,15.53
2018-09-01T08:22:26.929Z,14.40
2018-09-01T08:24:54.493Z,14.93
2018-09-01T08:27:22.837Z,14.57
2018-09-01T08:29:50.405Z,15.03
2018-09-01T08:32:17.969Z,14.70
2018-09-01T08:34:47.473Z,14.40
2018-09-01T08:37:15.035Z,14.20
2018-09-01T08:39:42.601Z,13.07
2018-09-01T08:42:10.170Z,13.00
2018-09-01T08:44:37.743Z,13.20
2018-09-01T08:47:05.309Z,13.00
2018-09-01T08:49:32.889Z,12.70
2018-09-01T08:52:00.454Z,11.27
2018-09-01T08:54:28.019Z,11.53
2018-09-01T08:56:56.567Z,11.80
2018-09-01T08:59:24.133Z,11.77
2018-09-01T09:01:51.708Z,11.43
2018-09-01T09:04:19.277Z,11.00
2018-09-01T09:06:46.850Z,10.73
2018-09-01T09:09:14.418Z,11.00
2018-09-01T09:11:42.095Z,10.30
2018-09-01T09:14:09.573Z,9.90
2018-09-01T09:16:37.138Z,10.60
2018-09-01T09:19:04.705Z,9.83
2018-09-01T09:21:32.276Z,10.00
2018-09-01T09:23:59.838Z,9.80
2018-09-01T09:26:27.401Z,9.67
2018-09-01T09:28:55.891Z,10.70
2018-09-01T09:31:23.470Z,10.27
2018-09-01T09:33:51.790Z,9.83
2018-09-01T09:36:19.354Z,10.13
2018-09-01T09:38:46.916Z,11.33
2018-09-01T09:41:14.477Z,9.43
2018-09-01T09:43:42.037Z,9.10
2018-09-01T09:46:10.592Z,10.67
2018-09-01T09:48:38.150Z,9.00
2018-09-01T09:51:05.915Z,9.33
2018-09-01T09:53:33.495Z,10.47
2018-09-01T09:56:01.993Z,9.70
2018-09-01T09:58:29.557Z,9.23
2018-09-01T10:00:57.137Z,10.57
2018-09-01T10:03:24.713Z,10.13
2018-09-01T10:05:52.278Z,9.67
2018-09-01T10:08:19.837Z,9.30
2018-09-01T10:10:47.402Z,9.63
2018-09-01T10:13:14.976Z,9.73
2018-09-01T10:15:42.556Z,8.30
2018-09-01T10:18:10.896Z,9.73
2018-09-01T10:20:38.616Z,9.40
2018-09-01T10:23:06.053Z,9.00
2018-09-01T10:25:33.616Z,10.30
2018-09-01T10:28:01.949Z,9.63
2018-09-01T10:30:31.473Z,9.27
2018-09-01T10:32:59.032Z,9.37
2018-09-01T10:35:26.602Z,11.13
2018-09-01T10:37:54.178Z,9.10
2018-09-01T10:40:21.737Z,8.67
2018-09-01T10:42:49.309Z,9.10
2018-09-01T10:45:16.874Z,8.43
2018-09-01T10:47:44.490Z,8.80
2018-09-01T10:50:12.020Z,9.27
2018-09-01T10:52:39.581Z,8.87
2018-09-01T10:55:08.121Z,8.40
2018-09-01T10:57:35.698Z,8.90
2018-09-01T11:00:03.268Z,9.20
2018-09-01T11:02:31.757Z,8.77
2018-09-01T11:04:59.335Z,8.47
2018-09-01T11:07:27.863Z,8.23
2018-09-01T11:09:55.430Z,8.27
2018-09-01T11:12:22.998Z,8.47
2018-09-01T11:14:50.557Z,8.93
2018-09-01T11:17:20.088Z,9.07
2018-09-01T11:19:47.670Z,9.03
2018-09-01T11:22:15.229Z,7.90
2018-09-01T11:24:44.734Z,8.10
2018-09-01T11:27:12.301Z,8.70
2018-09-01T11:29:39.885Z,8.40
2018-09-01T11:32:07.446Z,8.07
2018-09-01T11:34:35.041Z,8.53
2018-09-01T11:37:02.606Z,8.17
2018-09-01T11:39:30.172Z,7.83
2018-09-01T11:41:57.735Z,7.13
2018-09-01T11:44:25.297Z,7.53
2018-09-01T11:46:52.863Z,7.80
2018-09-01T11:49:20.433Z,8.17
2018-09-01T11:51:48.012Z,8.37
2018-09-01T11:54:15.598Z,7.50
2018-09-01T11:56:43.922Z,7.37
2018-09-01T11:59:11.491Z,7.77
2018-09-01T12:01:39.063Z,8.03
2018-09-01T12:04:07.570Z,6.20
2018-09-01T12:06:35.138Z,7.80
2018-09-01T12:09:02.785Z,8.17
2018-09-01T12:11:30.320Z,8.70
2018-09-01T12:13:57.917Z,8.50
2018-09-01T12:16:26.233Z,9.53
2018-09-01T12:18:53.793Z,9.13
2018-09-01T12:21:23.035Z,8.67
2018-09-01T12:23:51.367Z,7.97
2018-09-01T12:26:18.944Z,7.80
2018-09-01T12:28:47.433Z,8.90
2018-09-01T12:31:14.997Z,7.60
2018-09-01T12:33:43.333Z,8.13
2018-09-01T12:36:10.905Z,7.83
2018-09-01T12:38:38.475Z,8.07
2018-09-01T12:41:07.970Z,7.50
2018-09-01T12:43:35.554Z,7.07
2018-09-01T12:46:03.122Z,8.70
2018-09-01T12:48:30.687Z,7.10
2018-09-01T12:50:58.256Z,7.07
2018-09-01T12:53:25.836Z,6.97
2018-09-01T12:55:53.402Z,7.33
2018-09-01T12:58:20.969Z,7.07
2018-09-01T13:00:48.604Z,6.70
2018-09-01T13:03:16.176Z,6.47
2018-09-01T13:05:43.784Z,8.83
2018-09-01T13:08:12.106Z,6.87
2018-09-01T13:10:39.665Z,7.03
2018-09-01T13:13:07.221Z,8.10
2018-09-01T13:15:34.919Z,7.33
2018-09-01T13:18:02.478Z,8.07
2018-09-01T13:20:30.809Z,8.20
2018-09-01T13:23:00.313Z,7.87
2018-09-01T13:25:27.918Z,7.33
2018-09-01T13:27:57.198Z,6.83
2018-09-01T13:30:24.830Z,6.73
2018-09-01T13:32:52.393Z,5.57
2018-09-01T13:35:19.963Z,6.27
2018-09-01T13:37:47.516Z,6.43
2018-09-01T13:40:15.168Z,5.80
2018-09-01T13:42:45.377Z,5.80
2018-09-01T13:45:12.949Z,5.27
2018-09-01T13:47:42.477Z,5.03
2018-09-01T13:50:10.041Z,5.13
2018-09-01T13:52:38.550Z,5.70
2018-09-01T13:55:06.109Z,5.17
2018-09-01T13:57:35.620Z,4.63
2018-09-01T14:00:03.183Z,4.90
2018-09-01T14:02:32.712Z,4.80
2018-09-01T14:05:00.290Z,4.63
2018-09-01T14:07:28.773Z,4.30
2018-09-01T14:09:58.001Z,4.40
2018-09-01T14:12:25.573Z,5.60
2018-09-01T14:14:53.371Z,3.90
2018-09-01T14:17:21.685Z,4.80
2018-09-01T14:19:49.251Z,4.10
2018-09-01T14:22:18.804Z,11.80
2018-09-01T14:24:46.366Z,5.10
2018-09-01T14:27:13.957Z,4.90
2018-09-01T14:29:41.513Z,3.70
2018-09-01T14:32:09.085Z,3.93
2018-09-01T14:34:36.646Z,4.40
2018-09-01T14:37:04.479Z,4.37
2018-09-01T14:39:32.046Z,4.97
2018-09-01T14:41:59.611Z,4.73
2018-09-01T14:44:27.196Z,4.17
2018-09-01T14:46:54.820Z,5.30
2018-09-01T14:49:22.410Z,3.77
2018-09-01T14:51:49.973Z,3.60
2018-09-01T14:54:18.502Z,4.00
2018-09-01T14:56:46.302Z,3.90
2018-09-01T14:59:13.925Z,4.00
2018-09-01T15:01:42.275Z,3.77
2018-09-01T15:04:11.774Z,4.07
2018-09-01T15:06:39.350Z,4.13
2018-09-01T15:09:06.918Z,3.83
2018-09-01T15:11:34.495Z,3.93
2018-09-01T15:14:02.068Z,4.50
2018-09-01T15:16:29.628Z,3.72
2018-09-01T15:18:57.198Z,3.90
2018-09-01T15:21:24.763Z,3.60
2018-09-01T15:23:52.337Z,4.23
2018-09-01T15:26:19.915Z,3.33
2018-09-01T15:28:48.245Z,3.73
2018-09-01T15:31:16.818Z,3.80
2018-09-01T15:33:44.390Z,4.20
2018-09-01T15:36:11.952Z,4.10
2018-09-01T15:38:39.512Z,4.00
2018-09-01T15:41:07.081Z,3.80
2018-09-01T15:43:34.642Z,3.80
2018-09-01T15:46:02.205Z,4.13
2018-09-01T15:48:29.769Z,4.20
2018-09-01T15:50:57.341Z,3.70
2018-09-01T15:53:26.720Z,4.47
2018-09-01T15:55:55.297Z,4.23
2018-09-01T15:58:22.862Z,3.63
2018-09-01T16:00:51.381Z,4.40
2018-09-01T16:03:19.868Z,3.70
2018-09-01T16:05:49.376Z,4.37
2018-09-01T16:08:17.899Z,3.67
2018-09-01T16:10:47.415Z,4.17
2018-09-01T16:13:14.984Z,4.80
2018-09-01T16:15:42.541Z,4.03
2018-09-01T16:18:10.865Z,3.90
2018-09-01T16:20:38.417Z,3.70
2018-09-01T16:23:05.973Z,3.63
2018-09-01T16:25:34.506Z,4.10
2018-09-01T16:28:02.829Z,3.60
2018-09-01T16:30:30.385Z,3.80
2018-09-01T16:32:57.936Z,3.60
2018-09-01T16:35:26.453Z,3.83
2018-09-01T16:37:54.014Z,3.90
2018-09-01T16:40:21.580Z,4.40
2018-09-01T16:42:49.136Z,4.70
2018-09-01T16:45:19.390Z,3.93
2018-09-01T16:47:46.963Z,3.83
2018-09-01T16:50:14.705Z,4.10
2018-09-01T16:52:42.274Z,4.33
2018-09-01T16:55:09.847Z,4.50
2018-09-01T16:57:37.423Z,5.90
2018-09-01T17:00:06.944Z,4.70
2018-09-01T17:02:34.511Z,4.70
2018-09-01T17:05:02.071Z,4.90
2018-09-01T17:07:30.404Z,4.10
2018-09-01T17:09:57.977Z,4.10
2018-09-01T17:12:25.550Z,4.50
2018-09-01T17:14:53.105Z,4.23
2018-09-01T17:17:20.680Z,4.27
2018-09-01T17:19:50.191Z,4.80
2018-09-01T17:22:18.546Z,4.70
2018-09-01T17:24:46.117Z,4.80
2018-09-01T17:27:13.690Z,4.97
2018-09-01T17:29:41.269Z,4.70
2018-09-01T17:32:09.861Z,4.00
2018-09-01T17:34:37.436Z,4.20
2018-09-01T17:37:05.019Z,5.13
2018-09-01T17:39:32.581Z,4.20
2018-09-01T17:42:00.905Z,3.80
2018-09-01T17:44:28.482Z,4.30
2018-09-01T17:46:56.551Z,4.10
2018-09-01T17:49:24.206Z,4.93
2018-09-01T17:51:51.770Z,4.10
2018-09-01T17:54:19.337Z,4.07
2018-09-01T17:56:48.970Z,4.00
2018-09-01T17:59:17.113Z,3.73
2018-09-01T18:01:46.396Z,4.40
2018-09-01T18:04:13.983Z,4.20
2018-09-01T18:06:41.567Z,3.80
2018-09-01T18:09:09.149Z,3.93
2018-09-01T18:11:37.641Z,3.77
2018-09-01T18:14:05.216Z,4.10
2018-09-01T18:16:32.841Z,4.00
2018-09-01T18:19:00.365Z,4.20
2018-09-01T18:21:28.884Z,5.37
2018-09-01T18:23:56.443Z,4.47
2018-09-01T18:26:24.003Z,4.60
2018-09-01T18:28:51.564Z,4.70
2018-09-01T18:31:19.125Z,5.17
2018-09-01T18:33:48.643Z,4.20
2018-09-01T18:36:17.146Z,4.70
2018-09-01T18:38:44.720Z,3.83
2018-09-01T18:41:12.456Z,4.10
2018-09-01T18:43:41.812Z,4.60
2018-09-01T18:46:09.373Z,4.90
2018-09-01T18:48:36.932Z,4.20
2018-09-01T18:51:04.506Z,4.50
2018-09-01T18:53:32.064Z,4.30
2018-09-01T18:56:00.582Z,4.50
2018-09-01T18:58:28.913Z,4.23
2018-09-01T19:00:56.476Z,5.00
2018-09-01T19:03:24.032Z,4.93
2018-09-01T19:05:51.605Z,4.63
2018-09-01T19:08:19.173Z,4.50
2018-09-01T19:10:46.750Z,4.90
2018-09-01T19:13:14.313Z,5.10
2018-09-01T19:15:42.884Z,4.57
2018-09-01T19:18:10.457Z,4.90
2018-09-01T19:20:38.022Z,4.83
2018-09-01T19:23:05.589Z,4.43
2018-09-01T19:25:33.157Z,4.67
2018-09-01T19:28:01.629Z,3.90
2018-09-01T19:30:31.122Z,4.80
2018-09-01T19:32:58.691Z,4.80
2018-09-01T19:35:27.305Z,4.83
2018-09-01T19:37:54.880Z,5.20
2018-09-01T19:40:22.449Z,4.67
2018-09-01T19:42:51.662Z,4.23
2018-09-01T19:45:19.324Z,5.23
2018-09-01T19:47:46.835Z,5.17
2018-09-01T19:50:14.410Z,5.27
2018-09-01T19:52:42.741Z,4.50
2018-09-01T19:55:10.317Z,4.53
2018-09-01T19:57:37.941Z,4.37
2018-09-01T20:00:06.240Z,4.37
2018-09-01T20:02:33.801Z,4.50
2018-09-01T20:05:01.420Z,4.17
2018-09-01T20:07:28.986Z,5.00
2018-09-01T20:09:56.533Z,6.20
2018-09-01T20:12:24.096Z,4.73
2018-09-01T20:14:51.673Z,4.33
2018-09-01T20:17:19.236Z,4.30
2018-09-01T20:19:46.803Z,4.30
2018-09-01T20:22:14.369Z,4.20
2018-09-01T20:24:41.920Z,4.10
2018-09-01T20:27:09.486Z,4.40
2018-09-01T20:29:37.054Z,4.30
2018-09-01T20:32:04.624Z,4.70
2018-09-01T20:34:34.127Z,4.03
2018-09-01T20:37:02.462Z,4.40
2018-09-01T20:39:30.021Z,9.10
2018-09-01T20:41:57.578Z,3.80
2018-09-01T20:44:26.078Z,4.03
2018-09-01T20:46:53.682Z,4.13
2018-09-01T20:49:23.189Z,3.77
2018-09-01T20:51:51.744Z,3.87
2018-09-01T20:54:19.274Z,4.70
2018-09-01T20:56:47.808Z,3.97
2018-09-01T20:59:17.309Z,3.53
2018-09-01T21:01:44.867Z,4.80
2018-09-01T21:04:12.458Z,4.20
2018-09-01T21:06:40.044Z,4.43
2018-09-01T21:09:07.606Z,3.90
2018-09-01T21:11:35.174Z,5.50
2018-09-01T21:14:04.507Z,4.13
2018-09-01T21:16:33.150Z,4.13
2018-09-01T21:19:01.626Z,4.53
2018-09-01T21:21:29.197Z,4.35
2018-09-01T21:23:56.750Z,4.40
2018-09-01T21:26:25.081Z,5.37
2018-09-01T21:28:52.657Z,4.43
2018-09-01T21:31:20.226Z,4.30
2018-09-01T21:33:47.793Z,4.80
2018-09-01T21:36:16.121Z,4.10
2018-09-01T21:38:43.685Z,5.10
2018-09-01T21:41:11.253Z,4.70
2018-09-01T21:43:38.818Z,4.57
2018-09-01T21:46:06.373Z,4.23
2018-09-01T21:48:33.929Z,4.53
2018-09-01T21:51:01.496Z,4.90
2018-09-01T21:53:29.057Z,3.97
2018-09-01T21:55:57.614Z,5.40
2018-09-01T21:58:27.104Z,5.00
2018-09-01T22:00:54.670Z,5.87
2018-09-01T22:03:24.807Z,4.90
2018-09-01T22:05:53.405Z,4.60
2018-09-01T22:08:20.968Z,4.53
2018-09-01T22:10:48.529Z,4.53
2018-09-01T22:13:18.819Z,4.40
2018-09-01T22:15:46.381Z,4.43
2018-09-01T22:18:13.945Z,4.43
2018-09-01T22:20:41.511Z,5.20
2018-09-01T22:23:09.066Z,4.20
2018-09-01T22:25:36.633Z,5.07
2018-09-01T22:28:04.953Z,4.50
2018-09-01T22:30:32.534Z,4.70
2018-09-01T22:33:00.098Z,4.90
2018-09-01T22:35:27.652Z,4.40
2018-09-01T22:37:55.210Z,5.10
2018-09-01T22:40:22.773Z,5.10
2018-09-01T22:42:50.345Z,4.57
2018-09-01T22:45:18.664Z,4.07
2018-09-01T22:47:46.221Z,4.30
2018-09-01T22:50:15.717Z,4.37
2018-09-01T22:52:43.277Z,4.80
2018-09-01T22:55:10.937Z,4.90
2018-09-01T22:57:38.557Z,4.77
2018-09-01T23:00:06.081Z,3.80
2018-09-01T23:02:33.642Z,4.50
2018-09-01T23:05:01.204Z,4.43
2018-09-01T23:07:28.769Z,4.60
2018-09-01T23:09:56.327Z,4.47
2018-09-01T23:12:25.830Z,4.20
2018-09-01T23:14:53.393Z,4.57
2018-09-01T23:17:20.968Z,4.63
2018-09-01T23:19:48.548Z,4.83
2018-09-01T23:22:16.101Z,4.77
2018-09-01T23:24:43.669Z,4.97
2018-09-01T23:27:11.235Z,4.67
2018-09-01T23:29:38.796Z,4.70
2018-09-01T23:32:06.361Z,4.43
2018-09-01T23:34:33.917Z,5.43
2018-09-01T23:37:01.482Z,4.73
2018-09-01T23:39:29.042Z,4.57
2018-09-01T23:41:56.602Z,6.23
2018-09-01T23:44:24.164Z,4.23
2018-09-01T23:46:51.739Z,6.07
2018-09-01T23:49:19.316Z,5.70
2018-09-01T23:51:47.637Z,4.60
2018-09-01T23:54:15.192Z,4.47
2018-09-01T23:56:42.754Z,4.20
2018-09-01T23:59:10.317Z,4.70
